Terminal Aerodrome Forecast
Issued by NWS

Home | Current Version | Previous Version | Graphics & Text | Print | Product List | Glossary On
Versions: 1 2 3 4 5 6 7 8 9 10 11 12
000
FTUS43 KOAX 220539
TAFCDR
TAF
KCDR 220539Z 2206/2306 35008KT P6SM SCT120
     FM221300 34012G20KT P6SM BKN100
     FM222000 01010G18KT P6SM SCT100 BKN250=

USA.gov is the U.S. government's official web portal to all federal, state and local government web resources and services.